Time;durP1;ratioP1;P1;durP2;ratioP2;P2;SDS_P1;SDS_P2;PMS_P1;PMS_P2;Temp;Humidity;BMP_temperature;BMP_pressure;BME280_temperature;BME280_humidity;BME280_pressure;Samples;Min_cycle;Max_cycle;Signal;HPM_P1;HPM_P2
2023/12/03 00:01:56;;;;;;;58.87;27.20;;;;;;;0.52;83.79;101600.41;5056478;28;20546;-70
2023/12/03 00:04:22;;;;;;;52.67;26.10;;;;;;;0.51;83.78;101601.38;5057182;28;20667;-70
2023/12/03 00:06:49;;;;;;;50.60;25.20;;;;;;;0.52;83.85;101596.03;5056341;28;20187;-70
2023/12/03 00:09:16;;;;;;;56.57;25.53;;;;;;;0.45;84.08;101610.38;5056271;28;20206;-70
2023/12/03 00:11:43;;;;;;;49.83;25.40;;;;;;;0.51;84.05;101596.09;5056417;28;20697;-70
2023/12/03 00:14:09;;;;;;;55.80;25.37;;;;;;;0.50;84.31;101591.75;5056213;28;20191;-70
2023/12/03 00:16:36;;;;;;;55.53;27.03;;;;;;;0.43;84.77;101593.78;5056082;28;20195;-70
2023/12/03 00:19:02;;;;;;;63.80;28.07;;;;;;;0.45;84.74;101605.09;5056575;28;20213;-70
2023/12/03 00:21:29;;;;;;;56.27;24.80;;;;;;;0.50;84.72;101603.13;5056286;28;20229;-70
2023/12/03 00:23:56;;;;;;;61.87;26.80;;;;;;;0.47;84.99;101594.53;5056059;28;20184;-70
2023/12/03 00:26:22;;;;;;;63.70;27.00;;;;;;;0.56;85.04;101597.59;5055910;28;20191;-70
2023/12/03 00:28:49;;;;;;;63.97;25.00;;;;;;;0.56;85.28;101584.44;5056129;28;20285;-70
2023/12/03 00:31:16;;;;;;;56.17;25.17;;;;;;;0.56;85.30;101584.44;5055796;28;20214;-70
2023/12/03 00:33:42;;;;;;;53.63;26.20;;;;;;;0.61;84.82;101592.13;5056105;28;20626;-70
2023/12/03 00:36:09;;;;;;;58.87;27.87;;;;;;;0.68;84.39;101591.78;5055686;28;20197;-71
2023/12/03 00:38:36;;;;;;;52.63;24.87;;;;;;;0.71;84.48;101580.28;5055688;28;20639;-70
2023/12/03 00:41:02;;;;;;;60.67;25.50;;;;;;;0.70;84.54;101589.09;5056184;28;20187;-70
2023/12/03 00:43:29;;;;;;;52.23;24.70;;;;;;;0.82;83.91;101593.81;5055630;28;20198;-71
2023/12/03 00:45:57;;;;;;;58.13;26.90;;;;;;;0.80;84.09;101593.06;5055845;28;20193;-71
2023/12/03 00:48:24;;;;;;;46.03;24.30;;;;;;;0.74;84.04;101595.94;5055087;28;20222;-71
2023/12/03 00:50:50;;;;;;;47.17;25.03;;;;;;;0.78;83.95;101605.41;5055708;28;20685;-71
2023/12/03 00:53:17;;;;;;;59.13;28.07;;;;;;;0.76;83.84;101599.38;5055732;28;20589;-71
2023/12/03 00:55:43;;;;;;;53.13;23.63;;;;;;;0.77;84.14;101598.41;5055954;28;20175;-71
2023/12/03 00:58:10;;;;;;;52.33;25.00;;;;;;;0.67;83.91;101608.53;5055296;28;20267;-70
2023/12/03 01:00:36;;;;;;;49.47;25.40;;;;;;;0.73;83.62;101608.25;5055272;28;20183;-70
2023/12/03 01:03:03;;;;;;;56.17;26.87;;;;;;;0.68;84.19;101604.13;5055245;28;20601;-70
2023/12/03 01:05:29;;;;;;;59.37;25.73;;;;;;;0.67;84.11;101608.53;5055182;28;20179;-70
2023/12/03 01:07:56;;;;;;;66.23;29.27;;;;;;;0.61;84.18;101621.94;5055911;28;20199;-70
2023/12/03 01:10:22;;;;;;;73.80;27.43;;;;;;;0.59;84.06;101617.69;5055076;28;20686;-70
2023/12/03 01:12:50;;;;;;;50.80;25.33;;;;;;;0.58;84.53;101624.72;5055147;28;20211;-70
2023/12/03 01:15:17;;;;;;;62.90;26.83;;;;;;;0.56;84.31;101626.53;5055134;28;20271;-70
2023/12/03 01:17:43;;;;;;;67.53;26.73;;;;;;;0.53;84.62;101628.44;5054981;28;20202;-70
2023/12/03 01:20:10;;;;;;;59.07;27.10;;;;;;;0.55;84.26;101631.88;5054925;28;20188;-71
2023/12/03 01:22:37;;;;;;;67.73;26.90;;;;;;;0.58;84.57;101637.00;5054901;28;20187;-71
2023/12/03 01:25:03;;;;;;;55.70;26.17;;;;;;;0.61;84.74;101642.13;5055135;28;20194;-71
2023/12/03 01:27:30;;;;;;;54.87;26.70;;;;;;;0.54;84.04;101645.94;5055000;28;20195;-70
2023/12/03 01:29:56;;;;;;;55.67;24.83;;;;;;;0.51;84.40;101641.66;5055052;28;20679;-71
2023/12/03 01:32:23;;;;;;;49.17;23.10;;;;;;;0.33;85.40;101651.19;5054688;28;20215;-71
2023/12/03 01:34:53;;;;;;;66.10;28.03;;;;;;;0.27;85.69;101648.81;5054680;28;20663;-71
2023/12/03 01:37:19;;;;;;;63.20;27.67;;;;;;;0.34;85.60;101655.53;5054625;28;20185;-72
2023/12/03 01:39:46;;;;;;;62.23;27.57;;;;;;;0.34;85.76;101655.53;5054820;28;20211;-72
2023/12/03 01:42:13;;;;;;;59.93;26.03;;;;;;;0.30;86.21;101664.47;5054839;28;20199;-71
2023/12/03 01:44:39;;;;;;;58.63;26.33;;;;;;;0.34;86.55;101654.69;5054832;28;20198;-71
2023/12/03 01:47:06;;;;;;;63.00;26.53;;;;;;;0.31;86.88;101658.28;5054748;28;20198;-71
2023/12/03 01:49:33;;;;;;;66.47;26.47;;;;;;;0.28;87.32;101663.69;5054379;28;20210;-71
2023/12/03 01:52:00;;;;;;;72.43;27.27;;;;;;;0.33;87.12;101669.63;5054297;28;20212;-71
2023/12/03 01:54:28;;;;;;;59.73;26.90;;;;;;;0.31;87.53;101668.81;5054295;28;20558;-71
2023/12/03 01:56:54;;;;;;;75.23;29.83;;;;;;;0.34;87.75;101670.47;5054802;28;20187;-71
2023/12/03 01:59:23;;;;;;;63.67;28.07;;;;;;;0.36;87.86;101666.84;5053627;28;20218;-70
2023/12/03 02:01:49;;;;;;;64.63;28.13;;;;;;;0.28;88.26;101674.19;5054533;28;20180;-72
2023/12/03 02:04:16;;;;;;;67.43;28.17;;;;;;;0.30;88.34;101671.50;5054453;28;20618;-71
2023/12/03 02:06:42;;;;;;;81.13;27.83;;;;;;;0.33;88.27;101669.63;5054139;28;20266;-71
2023/12/03 02:09:09;;;;;;;67.90;29.13;;;;;;;0.37;88.42;101671.19;5054533;28;20214;-71
2023/12/03 02:11:36;;;;;;;85.50;30.30;;;;;;;0.32;88.72;101672.28;5054220;28;20293;-71
2023/12/03 02:14:03;;;;;;;64.57;28.67;;;;;;;0.42;88.65;101671.00;5053998;28;20199;-71
2023/12/03 02:16:30;;;;;;;68.30;27.80;;;;;;;0.42;89.04;101678.91;5053784;28;20193;-71
2023/12/03 02:18:57;;;;;;;79.03;30.33;;;;;;;0.31;89.33;101679.31;5054043;28;20213;-70
2023/12/03 02:21:23;;;;;;;63.37;28.70;;;;;;;0.44;88.98;101680.53;5054157;28;20262;-70
2023/12/03 02:23:50;;;;;;;73.27;29.10;;;;;;;0.47;89.32;101675.13;5054586;28;20577;-70
2023/12/03 02:26:16;;;;;;;73.30;29.27;;;;;;;0.39;89.38;101673.75;5054049;28;20612;-71
2023/12/03 02:28:43;;;;;;;78.70;29.77;;;;;;;0.48;89.13;101683.88;5053869;28;20222;-71
2023/12/03 02:31:09;;;;;;;76.57;29.20;;;;;;;0.47;89.16;101676.06;5053919;28;20204;-70
2023/12/03 02:33:36;;;;;;;77.17;29.93;;;;;;;0.43;89.69;101672.69;5052567;28;20201;-71
2023/12/03 02:36:03;;;;;;;60.93;26.70;;;;;;;0.47;89.49;101686.59;5053805;28;20226;-71
2023/12/03 02:38:29;;;;;;;69.10;28.10;;;;;;;0.53;89.63;101687.19;5053472;28;20210;-70
2023/12/03 02:40:58;;;;;;;68.63;28.43;;;;;;;0.49;89.90;101685.59;5053476;28;20554;-70
2023/12/03 02:43:25;;;;;;;61.50;28.10;;;;;;;0.49;90.09;101685.59;5053623;28;20524;-71
2023/12/03 02:45:51;;;;;;;69.97;28.90;;;;;;;0.55;90.14;101685.34;5053926;28;20194;-71
2023/12/03 02:48:18;;;;;;;71.03;28.23;;;;;;;0.64;89.53;101679.69;5053711;28;20207;-70
2023/12/03 02:50:44;;;;;;;74.50;29.17;;;;;;;0.56;89.62;101678.28;5053875;28;20187;-70
2023/12/03 02:53:11;;;;;;;78.77;30.43;;;;;;;0.47;90.31;101677.75;5053267;28;20617;-70
2023/12/03 02:55:37;;;;;;;72.57;28.53;;;;;;;0.58;90.32;101676.47;5053402;28;20187;-70
2023/12/03 02:58:04;;;;;;;70.07;29.77;;;;;;;0.54;90.34;101672.25;5053319;28;20217;-71
2023/12/03 03:00:30;;;;;;;84.33;31.27;;;;;;;0.68;90.10;101670.72;5053205;28;20195;-71
2023/12/03 03:02:57;;;;;;;80.30;30.30;;;;;;;0.67;89.98;101665.56;5051916;28;20202;-71
2023/12/03 03:05:23;;;;;;;71.10;28.90;;;;;;;0.67;90.53;101668.19;5053136;28;20194;-71
2023/12/03 03:07:50;;;;;;;72.53;29.93;;;;;;;0.74;90.01;101672.25;5053321;28;20617;-70
2023/12/03 03:10:16;;;;;;;67.83;27.83;;;;;;;0.78;89.87;101681.72;5053350;28;20578;-71
2023/12/03 03:12:42;;;;;;;70.80;29.47;;;;;;;0.79;90.21;101676.41;5053571;28;20211;-71
2023/12/03 03:15:09;;;;;;;76.33;29.37;;;;;;;0.86;89.68;101674.34;5053031;28;20275;-71
2023/12/03 03:17:36;;;;;;;65.10;28.93;;;;;;;0.86;89.67;101688.38;5052958;28;20571;-71
2023/12/03 03:20:03;;;;;;;69.50;28.10;;;;;;;0.85;89.43;101688.44;5052991;28;20274;-71
2023/12/03 03:22:29;;;;;;;63.17;27.47;;;;;;;0.85;89.36;101685.78;5052967;28;20188;-71
2023/12/03 03:24:56;;;;;;;62.27;26.53;;;;;;;0.80;89.19;101688.66;5053202;28;20194;-71
2023/12/03 03:27:22;;;;;;;57.30;26.37;;;;;;;0.82;89.31;101688.56;5052946;28;20179;-71
2023/12/03 03:29:49;;;;;;;65.63;29.57;;;;;;;0.75;89.34;101690.63;5053045;28;20299;-71
2023/12/03 03:32:15;;;;;;;62.27;26.77;;;;;;;0.68;89.66;101689.16;5053079;28;20199;-71
2023/12/03 03:34:42;;;;;;;53.33;25.00;;;;;;;0.69;89.50;101682.97;5052899;28;20191;-71
2023/12/03 03:37:08;;;;;;;62.20;26.90;;;;;;;0.68;89.69;101691.78;5053093;28;20627;-71
2023/12/03 03:39:35;;;;;;;68.90;28.63;;;;;;;0.68;89.67;101693.59;5052770;28;20214;-71
2023/12/03 03:42:02;;;;;;;60.23;27.87;;;;;;;0.66;90.41;101703.31;5053076;28;20198;-71
2023/12/03 03:44:29;;;;;;;63.47;28.10;;;;;;;0.77;90.01;101694.03;5052959;28;20183;-71
2023/12/03 03:46:55;;;;;;;58.77;26.57;;;;;;;0.82;89.66;101705.22;5052778;28;20187;-71
2023/12/03 03:49:22;;;;;;;70.67;29.37;;;;;;;0.81;89.58;101690.34;5052658;28;20207;-71
2023/12/03 03:51:50;;;;;;;61.10;28.30;;;;;;;0.76;89.77;101700.22;5052701;28;20203;-71
2023/12/03 03:54:16;;;;;;;66.83;27.30;;;;;;;0.78;89.73;101695.75;5053059;28;20183;-70
2023/12/03 03:56:49;;;;;;;55.77;26.63;;;;;;;0.81;89.87;101707.91;5052981;28;20184;-71
2023/12/03 03:59:16;;;;;;;69.20;28.93;;;;;;;0.80;90.06;101696.56;5052753;28;20211;-70
2023/12/03 04:01:43;;;;;;;68.70;29.27;;;;;;;0.87;90.05;101702.38;5052667;28;20172;-70
2023/12/03 04:04:11;;;;;;;72.23;29.90;;;;;;;0.96;89.53;101703.78;5052627;28;20190;-70
2023/12/03 04:06:44;;;;;;;74.27;30.87;;;;;;;1.00;88.85;101705.34;5053116;28;20543;-70
2023/12/03 04:09:11;;;;;;;66.07;28.93;;;;;;;0.98;89.01;101704.56;5052579;28;20583;-70
2023/12/03 04:11:45;;;;;;;70.97;29.73;;;;;;;0.98;88.96;101704.56;5052429;28;20758;-70
2023/12/03 04:14:16;;;;;;;69.40;29.93;;;;;;;0.98;89.00;101710.66;5053083;28;20183;-70
2023/12/03 04:16:43;;;;;;;63.03;28.73;;;;;;;0.91;88.97;101710.09;5052830;28;20197;-71
2023/12/03 04:19:13;;;;;;;67.33;28.23;;;;;;;0.90;89.41;101712.78;5052676;28;20587;-68
2023/12/03 04:21:39;;;;;;;70.07;28.40;;;;;;;0.93;89.44;101710.03;5052457;28;20183;-68
2023/12/03 04:24:06;;;;;;;62.37;29.37;;;;;;;0.88;89.58;101719.91;5055984;28;20188;-68
2023/12/03 04:26:33;;;;;;;60.40;27.60;;;;;;;0.96;89.21;101720.44;5056288;28;20202;-68
2023/12/03 04:29:00;;;;;;;64.23;27.87;;;;;;;1.01;88.83;101714.97;5055934;28;20215;-69
2023/12/03 04:31:26;;;;;;;58.40;28.57;;;;;;;0.90;88.73;101724.16;5056122;28;20198;-69
2023/12/03 04:33:54;;;;;;;64.83;27.03;;;;;;;1.05;88.27;101724.44;5056251;28;20191;-69
2023/12/03 04:36:23;;;;;;;62.43;28.37;;;;;;;1.10;88.04;101730.38;5055313;28;20191;-69
2023/12/03 04:38:53;;;;;;;64.00;27.17;;;;;;;0.96;87.77;101728.31;5056263;28;20285;-69
2023/12/03 04:41:20;;;;;;;59.93;25.83;;;;;;;0.93;87.68;101722.34;5055798;28;20202;-69
2023/12/03 04:43:47;;;;;;;55.87;24.37;;;;;;;1.02;87.30;101725.41;5055707;28;20218;-69
2023/12/03 04:46:14;;;;;;;58.37;25.83;;;;;;;1.01;87.50;101722.88;5055584;28;20191;-69
2023/12/03 04:48:41;;;;;;;60.53;25.63;;;;;;;1.00;87.36;101729.91;5055533;28;20211;-69
2023/12/03 04:51:11;;;;;;;54.60;25.07;;;;;;;0.94;86.58;101732.78;5055531;28;20187;-69
2023/12/03 04:53:38;;;;;;;57.53;26.50;;;;;;;0.88;87.00;101733.94;5055753;28;20195;-69
2023/12/03 04:56:05;;;;;;;55.50;26.13;;;;;;;0.80;87.32;101730.75;5055996;28;20647;-69
2023/12/03 04:58:31;;;;;;;56.63;25.40;;;;;;;0.83;87.66;101729.75;5055652;28;20581;-69
2023/12/03 05:00:58;;;;;;;57.17;27.07;;;;;;;0.77;87.77;101733.50;5055611;28;20660;-69
2023/12/03 05:03:24;;;;;;;55.27;26.10;;;;;;;0.81;87.95;101729.81;5055272;28;20198;-69
2023/12/03 05:05:51;;;;;;;53.60;24.80;;;;;;;0.87;87.90;101739.25;5055297;28;20184;-69
2023/12/03 05:08:18;;;;;;;47.40;21.93;;;;;;;0.95;87.58;101731.00;5055163;28;20207;-68
2023/12/03 05:10:44;;;;;;;51.10;22.87;;;;;;;0.97;87.29;101734.44;5055166;28;20659;-69
2023/12/03 05:13:11;;;;;;;61.67;24.60;;;;;;;0.96;87.14;101740.63;5055015;28;20214;-69
2023/12/03 05:15:37;;;;;;;45.73;23.10;;;;;;;0.96;86.71;101738.00;5055398;28;20531;-69
2023/12/03 05:18:04;;;;;;;38.47;21.23;;;;;;;0.90;87.27;101747.84;5055067;28;20253;-69
2023/12/03 05:20:31;;;;;;;42.00;21.07;;;;;;;0.93;87.27;101749.53;5054953;28;20191;-69
2023/12/03 05:22:57;;;;;;;50.20;23.70;;;;;;;1.01;86.88;101749.19;5055229;28;20195;-70
2023/12/03 05:25:24;;;;;;;57.73;22.33;;;;;;;0.99;86.36;101745.75;5054962;28;20188;-70
2023/12/03 05:27:50;;;;;;;45.63;22.23;;;;;;;0.95;86.45;101750.28;5055075;28;20582;-69
2023/12/03 05:30:18;;;;;;;50.77;21.40;;;;;;;0.84;86.88;101761.31;5054808;28;20193;-69
2023/12/03 05:32:44;;;;;;;43.93;20.60;;;;;;;0.81;86.81;101758.78;5054695;28;20261;-69
2023/12/03 05:35:11;;;;;;;48.90;20.93;;;;;;;0.79;86.97;101755.38;5053884;28;20187;-69
2023/12/03 05:37:38;;;;;;;49.53;21.07;;;;;;;0.76;87.28;101757.28;5054592;28;20180;-69
2023/12/03 05:40:07;;;;;;;46.77;20.20;;;;;;;0.75;87.51;101755.56;5054687;28;20183;-69
2023/12/03 05:42:33;;;;;;;46.07;19.47;;;;;;;0.77;87.78;101762.44;5054823;28;20205;-69
2023/12/03 05:45:00;;;;;;;40.67;20.27;;;;;;;0.80;87.83;101766.75;5054793;28;20266;-69
2023/12/03 05:47:26;;;;;;;45.17;19.30;;;;;;;0.74;87.43;101759.97;5055039;28;20188;-69
2023/12/03 05:49:53;;;;;;;37.70;18.93;;;;;;;0.72;87.42;101760.97;5054403;28;20242;-68
2023/12/03 05:52:19;;;;;;;40.87;19.73;;;;;;;0.70;87.23;101761.00;5054523;28;20207;-68
2023/12/03 05:54:46;;;;;;;41.27;20.27;;;;;;;0.78;87.34;101758.06;5054368;28;20700;-68
2023/12/03 05:57:12;;;;;;;47.37;19.77;;;;;;;0.72;87.41;101761.78;5054828;28;20215;-68
2023/12/03 05:59:39;;;;;;;37.50;19.57;;;;;;;0.72;87.12;101767.03;5054472;28;20324;-69
2023/12/03 06:02:05;;;;;;;38.23;18.80;;;;;;;0.79;87.44;101768.53;5054169;28;20550;-69
2023/12/03 06:04:32;;;;;;;39.00;19.27;;;;;;;0.87;87.00;101771.69;5054508;28;20176;-69
2023/12/03 06:06:58;;;;;;;37.67;19.60;;;;;;;0.87;86.69;101774.31;5054702;28;20259;-69
2023/12/03 06:09:25;;;;;;;42.17;19.60;;;;;;;0.83;86.78;101780.63;5054281;28;20221;-69
2023/12/03 06:11:52;;;;;;;39.23;18.77;;;;;;;0.86;86.62;101782.28;5054341;28;20180;-69
2023/12/03 06:14:18;;;;;;;34.63;18.60;;;;;;;0.84;86.87;101781.50;5052795;28;20241;-69
2023/12/03 06:16:44;;;;;;;36.90;18.40;;;;;;;0.96;86.73;101780.13;5054152;28;20268;-69
2023/12/03 06:19:11;;;;;;;39.57;18.60;;;;;;;1.02;86.40;101785.97;5054002;28;20294;-69
2023/12/03 06:21:37;;;;;;;33.67;18.23;;;;;;;1.05;85.61;101780.59;5054616;28;20182;-69
2023/12/03 06:24:05;;;;;;;38.90;20.30;;;;;;;0.95;85.83;101789.78;5054040;28;20616;-69
2023/12/03 06:26:32;;;;;;;36.03;18.30;;;;;;;0.87;86.13;101795.38;5053709;28;20200;-69
2023/12/03 06:28:58;;;;;;;50.80;20.30;;;;;;;0.97;85.91;101789.72;5053616;28;20218;-69
2023/12/03 06:31:25;;;;;;;35.67;18.77;;;;;;;1.03;85.64;101792.94;5053977;28;20561;-69
2023/12/03 06:33:51;;;;;;;34.33;18.07;;;;;;;0.97;86.00;101795.84;5053606;28;20199;-69
2023/12/03 06:36:18;;;;;;;34.43;18.40;;;;;;;0.96;86.11;101801.19;5053621;28;20178;-69
2023/12/03 06:38:45;;;;;;;35.60;18.10;;;;;;;1.06;85.97;101800.72;5053446;28;20242;-69
2023/12/03 06:41:11;;;;;;;34.73;16.93;;;;;;;1.11;85.77;101804.00;5053513;28;20190;-69
2023/12/03 06:43:37;;;;;;;37.30;18.17;;;;;;;1.06;85.40;101803.34;5053475;28;20184;-70
2023/12/03 06:46:04;;;;;;;44.27;18.80;;;;;;;1.02;85.90;101803.56;5053096;28;20187;-69
2023/12/03 06:48:31;;;;;;;33.13;17.87;;;;;;;1.04;86.13;101804.34;5053257;28;20207;-69
2023/12/03 06:50:57;;;;;;;43.23;19.20;;;;;;;1.10;85.89;101804.97;5053549;28;20670;-69
2023/12/03 06:53:24;;;;;;;34.50;18.13;;;;;;;1.20;85.75;101810.66;5053460;28;20199;-69
2023/12/03 06:55:50;;;;;;;28.20;17.07;;;;;;;1.13;85.06;101817.13;5053297;28;20559;-69
2023/12/03 06:58:17;;;;;;;31.33;17.27;;;;;;;1.09;85.52;101818.19;5053182;28;20213;-69
2023/12/03 07:00:43;;;;;;;30.63;16.87;;;;;;;1.06;85.74;101810.41;5053230;28;20202;-69
2023/12/03 07:03:10;;;;;;;29.43;15.93;;;;;;;1.05;86.02;101808.69;5053182;28;20184;-69
2023/12/03 07:05:38;;;;;;;35.00;17.33;;;;;;;1.03;86.01;101813.16;5053164;28;20180;-69
2023/12/03 07:08:04;;;;;;;39.27;18.07;;;;;;;1.07;85.57;101817.38;5053063;28;20283;-69
2023/12/03 07:10:31;;;;;;;32.33;17.50;;;;;;;1.01;85.51;101812.38;5053128;28;20195;-69
2023/12/03 07:12:57;;;;;;;35.13;17.17;;;;;;;0.98;85.41;101812.50;5053318;28;20207;-69
2023/12/03 07:15:23;;;;;;;30.40;16.13;;;;;;;0.99;85.54;101812.44;5053334;28;20619;-69
2023/12/03 07:17:50;;;;;;;31.43;17.23;;;;;;;1.06;85.02;101813.03;5052907;28;20219;-69
2023/12/03 07:20:18;;;;;;;32.37;16.20;;;;;;;1.02;85.31;101819.38;5053289;28;20597;-70
2023/12/03 07:22:44;;;;;;;28.13;16.77;;;;;;;1.08;85.37;101808.56;5052982;28;20531;-70
2023/12/03 07:25:11;;;;;;;26.87;17.60;;;;;;;0.99;85.49;101822.09;5053581;28;20198;-69
2023/12/03 07:27:37;;;;;;;42.00;17.30;;;;;;;0.97;85.25;101821.31;5053224;28;20654;-69
2023/12/03 07:30:06;;;;;;;32.57;17.07;;;;;;;0.96;85.28;101820.47;5053291;28;20193;-69
2023/12/03 07:32:32;;;;;;;40.97;17.13;;;;;;;0.98;85.26;101820.41;5053729;28;20214;-69
2023/12/03 07:34:59;;;;;;;29.73;17.07;;;;;;;0.93;85.53;101825.88;5053236;28;20651;-69
2023/12/03 07:37:25;;;;;;;31.87;16.87;;;;;;;1.06;84.80;101831.47;5053485;28;20187;-69
2023/12/03 07:39:52;;;;;;;33.27;17.47;;;;;;;0.99;85.09;101836.13;5052865;28;20215;-69
2023/12/03 07:42:19;;;;;;;31.37;17.97;;;;;;;1.04;84.84;101836.78;5054148;28;20191;-69
2023/12/03 07:44:46;;;;;;;29.90;16.53;;;;;;;1.07;84.87;101843.69;5053600;28;20222;-69
2023/12/03 07:47:13;;;;;;;30.60;16.10;;;;;;;1.02;84.89;101850.97;5053466;28;20188;-69
2023/12/03 07:49:40;;;;;;;30.90;17.53;;;;;;;1.15;85.05;101860.03;5053717;28;20223;-69
2023/12/03 07:52:07;;;;;;;30.90;17.43;;;;;;;1.15;84.48;101857.41;5051588;28;20187;-69
2023/12/03 07:54:33;;;;;;;31.20;17.83;;;;;;;1.15;84.30;101854.75;5052700;28;20215;-70
2023/12/03 07:57:00;;;;;;;38.10;17.33;;;;;;;1.12;84.54;101860.16;5053026;28;20183;-70
2023/12/03 07:59:26;;;;;;;33.07;17.30;;;;;;;1.21;84.16;101871.19;5056430;28;20221;-70
2023/12/03 08:01:53;;;;;;;30.63;17.23;;;;;;;1.21;84.27;101867.69;5057027;28;20217;-70
2023/12/03 08:04:20;;;;;;;35.00;17.67;;;;;;;1.26;84.40;101877.13;5056650;28;20175;-69
2023/12/03 08:06:46;;;;;;;37.20;17.23;;;;;;;1.16;84.03;101870.50;5056606;28;20225;-69
2023/12/03 08:09:13;;;;;;;31.60;17.53;;;;;;;1.22;84.14;101870.28;5056275;28;20261;-70
2023/12/03 08:11:40;;;;;;;32.13;16.43;;;;;;;1.15;84.26;101870.56;5056857;28;20183;-67
2023/12/03 08:14:06;;;;;;;28.00;15.90;;;;;;;1.16;84.49;101874.91;5056757;28;20559;-67
2023/12/03 08:16:33;;;;;;;27.57;15.67;;;;;;;1.20;83.93;101877.38;5056100;28;20562;-67
2023/12/03 08:18:59;;;;;;;26.90;15.53;;;;;;;1.15;83.60;101878.47;5056394;28;20214;-67
2023/12/03 08:21:26;;;;;;;25.70;15.77;;;;;;;1.18;83.40;101873.97;5056475;28;20574;-67
2023/12/03 08:23:52;;;;;;;27.00;15.70;;;;;;;1.22;83.35;101877.31;5056074;28;20191;-67
2023/12/03 08:26:20;;;;;;;24.17;15.27;;;;;;;1.22;83.43;101866.78;5056294;28;20294;-67
2023/12/03 08:28:46;;;;;;;32.47;16.50;;;;;;;1.30;83.25;101867.31;5055897;28;20214;-67
2023/12/03 08:31:13;;;;;;;23.53;16.03;;;;;;;1.27;82.88;101872.72;5056206;28;20278;-67
2023/12/03 08:33:44;;;;;;;27.50;16.90;;;;;;;1.28;82.73;101879.66;5056406;28;20199;-67
2023/12/03 08:36:17;;;;;;;23.73;15.13;;;;;;;1.17;82.70;101884.53;5056201;28;20574;-67
2023/12/03 08:38:45;;;;;;;22.03;15.10;;;;;;;1.17;82.62;101881.91;5056047;28;20207;-67
2023/12/03 08:41:12;;;;;;;30.90;16.03;;;;;;;1.20;82.29;101885.28;5055981;28;20186;-67
2023/12/03 08:43:38;;;;;;;24.20;15.27;;;;;;;1.13;82.26;101886.44;5055756;28;20179;-67
2023/12/03 08:46:06;;;;;;;26.23;14.73;;;;;;;1.14;82.15;101876.78;5055901;28;20278;-67
2023/12/03 08:48:32;;;;;;;27.10;15.00;;;;;;;1.14;82.50;101874.16;5055752;28;20222;-67
2023/12/03 08:50:59;;;;;;;25.80;15.77;;;;;;;1.20;82.12;101881.78;5056404;28;20551;-67
2023/12/03 08:53:25;;;;;;;29.10;16.80;;;;;;;1.21;82.15;101889.63;5055726;28;20600;-66
2023/12/03 08:55:52;;;;;;;23.00;15.70;;;;;;;1.24;81.50;101883.34;5056030;28;20635;-67
2023/12/03 08:58:18;;;;;;;30.90;15.50;;;;;;;1.29;81.64;101882.25;5055888;28;20207;-67
2023/12/03 09:00:45;;;;;;;27.93;15.97;;;;;;;1.35;80.97;101879.38;5055659;28;20183;-67
2023/12/03 09:03:11;;;;;;;20.23;14.40;;;;;;;1.25;81.30;101877.19;5055328;28;20559;-67
2023/12/03 09:05:42;;;;;;;23.23;15.77;;;;;;;1.25;81.66;101875.41;5055651;28;20178;-67
2023/12/03 09:08:08;;;;;;;23.10;15.60;;;;;;;1.31;80.91;101880.44;5054949;28;20204;-67
2023/12/03 09:10:35;;;;;;;26.03;15.47;;;;;;;1.37;79.99;101888.06;5055182;28;20187;-67
2023/12/03 09:13:01;;;;;;;26.80;17.13;;;;;;;1.47;80.07;101879.75;5055009;28;20218;-67
2023/12/03 09:15:28;;;;;;;31.63;16.40;;;;;;;1.52;79.45;101885.69;5055088;28;20274;-67
2023/12/03 09:17:54;;;;;;;22.63;14.10;;;;;;;1.51;79.49;101879.56;5055280;28;20243;-67
2023/12/03 09:20:21;;;;;;;23.47;14.83;;;;;;;1.57;78.98;101874.00;5055594;28;20197;-67
2023/12/03 09:22:48;;;;;;;23.47;14.67;;;;;;;1.69;78.44;101873.50;5055528;28;20200;-67
2023/12/03 09:25:14;;;;;;;32.00;15.40;;;;;;;1.63;78.50;101873.75;5055289;28;20191;-67
2023/12/03 09:27:42;;;;;;;22.20;14.80;;;;;;;1.67;78.14;101879.75;5055163;28;20203;-67
2023/12/03 09:30:10;;;;;;;21.47;14.43;;;;;;;1.64;78.34;101878.13;5054842;28;20237;-67
2023/12/03 09:32:37;;;;;;;25.97;13.73;;;;;;;1.83;77.62;101876.38;5055049;28;20194;-67
2023/12/03 09:35:04;;;;;;;23.03;15.60;;;;;;;1.73;77.92;101880.38;5054727;28;20268;-67
2023/12/03 09:37:30;;;;;;;23.50;15.10;;;;;;;1.74;77.91;101873.31;5054630;28;20211;-68
2023/12/03 09:39:57;;;;;;;24.97;13.83;;;;;;;1.78;77.70;101881.00;5054647;28;20184;-68
2023/12/03 09:42:26;;;;;;;22.43;14.77;;;;;;;1.75;77.60;101885.53;5054630;28;20183;-68
2023/12/03 09:45:00;;;;;;;20.07;14.20;;;;;;;1.83;76.86;101889.56;5055325;28;20188;-68
2023/12/03 09:47:30;;;;;;;21.77;14.00;;;;;;;1.87;76.49;101887.63;5054541;28;20181;-68
2023/12/03 09:49:57;;;;;;;19.80;13.23;;;;;;;1.90;75.86;101898.06;5054488;28;20189;-68
2023/12/03 09:52:24;;;;;;;28.70;15.40;;;;;;;1.95;75.67;101889.97;5054684;28;20245;-68
2023/12/03 09:54:53;;;;;;;21.47;13.70;;;;;;;2.07;76.01;101887.63;5054238;28;20306;-68
2023/12/03 09:57:24;;;;;;;20.37;12.80;;;;;;;2.21;75.40;101892.25;5054886;28;20215;-68
2023/12/03 09:59:55;;;;;;;20.93;13.43;;;;;;;2.26;75.92;101893.75;5054206;28;20216;-68
2023/12/03 10:02:26;;;;;;;26.23;14.70;;;;;;;2.35;75.88;101900.41;5054538;28;20185;-68
2023/12/03 10:04:53;;;;;;;20.17;11.73;;;;;;;2.42;74.81;101893.91;5054732;28;20211;-68
2023/12/03 10:07:22;;;;;;;21.73;13.57;;;;;;;2.48;74.12;101887.50;5054070;28;20184;-68
2023/12/03 10:09:49;;;;;;;23.00;14.23;;;;;;;2.51;73.35;101890.84;5053963;28;20227;-68
2023/12/03 10:12:17;;;;;;;26.13;14.67;;;;;;;2.52;72.78;101897.84;5054066;28;20202;-68
2023/12/03 10:14:45;;;;;;;28.00;13.67;;;;;;;2.61;73.13;101905.34;5053935;28;20261;-68
2023/12/03 10:17:21;;;;;;;20.73;12.77;;;;;;;2.64;72.95;101909.59;5054210;28;20246;-68
2023/12/03 10:19:48;;;;;;;22.40;12.83;;;;;;;2.67;71.97;101899.75;5053513;28;20266;-68
2023/12/03 10:22:15;;;;;;;17.83;12.93;;;;;;;2.54;72.15;101901.28;5054180;28;20197;-68
2023/12/03 10:24:48;;;;;;;23.00;13.80;;;;;;;2.59;72.55;101893.97;5054356;28;20190;-68
2023/12/03 10:27:15;;;;;;;18.73;12.90;;;;;;;2.50;72.68;101890.94;5053830;28;20174;-68
2023/12/03 10:29:42;;;;;;;23.37;14.27;;;;;;;2.47;72.62;101893.69;5053688;28;20311;-68
2023/12/03 10:32:11;;;;;;;21.57;13.77;;;;;;;2.46;72.62;101895.47;5053946;28;20190;-68
2023/12/03 10:34:43;;;;;;;22.17;14.10;;;;;;;2.46;72.96;101887.56;5053518;28;20217;-68
2023/12/03 10:37:09;;;;;;;21.60;13.97;;;;;;;2.52;72.84;101887.28;5053934;28;20177;-68
2023/12/03 10:39:37;;;;;;;22.07;14.13;;;;;;;2.64;73.30;101883.19;5053814;28;20305;-68
2023/12/03 10:42:04;;;;;;;23.80;14.33;;;;;;;2.57;72.33;101880.00;5053765;28;20197;-68
2023/12/03 10:44:30;;;;;;;21.33;13.63;;;;;;;2.61;72.39;101891.28;5053420;28;20189;-68
2023/12/03 10:46:57;;;;;;;32.10;14.47;;;;;;;2.63;72.12;101887.63;5053994;28;20277;-68
2023/12/03 10:49:25;;;;;;;27.60;14.57;;;;;;;2.59;71.66;101886.06;5053595;28;20214;-68
2023/12/03 10:51:54;;;;;;;24.77;14.13;;;;;;;2.55;72.56;101878.34;5053431;28;20196;-68
2023/12/03 10:54:21;;;;;;;19.70;13.67;;;;;;;2.40;71.89;101879.94;5053292;28;20575;-68
2023/12/03 10:56:53;;;;;;;27.50;13.90;;;;;;;2.36;72.55;101881.03;5053324;28;20229;-68
2023/12/03 10:59:31;;;;;;;29.90;15.30;;;;;;;2.30;73.16;101884.78;5053449;28;20216;-68
2023/12/03 11:02:02;;;;;;;24.67;14.83;;;;;;;2.34;72.93;101879.34;5053560;28;20193;-68
2023/12/03 11:04:39;;;;;;;28.83;15.23;;;;;;;2.26;72.36;101880.56;5053343;28;20180;-68
2023/12/03 11:07:09;;;;;;;31.40;15.23;;;;;;;2.29;72.93;101869.03;5053722;28;20181;-68
2023/12/03 11:09:39;;;;;;;28.37;14.90;;;;;;;2.42;72.76;101871.97;5053135;28;20235;-67
2023/12/03 11:12:11;;;;;;;19.13;13.43;;;;;;;2.55;72.49;101859.88;5053129;28;20183;-67
2023/12/03 11:14:38;;;;;;;24.13;14.93;;;;;;;2.62;72.12;101859.53;5052964;28;20220;-67
2023/12/03 11:17:11;;;;;;;24.53;13.67;;;;;;;2.72;72.33;101852.88;5053395;28;20199;-67